A39

Ak-Chin Regional Airport

Maricopa, Arizona, USA
METAR KA39 260335Z AUTO 34004KT 7SM HZ CLR 29/M03 A2990 RMK AO2
Observed Flight Rules
Apr-26 @ 03:35 UTC (16 minutes ago) Visual Flight Rules
Wind Visibility Clouds Conditions
340° at 4 knots 7 miles
  • Clear skies
  • Haze
Temperatures Readings
Current 29°C / 84°F
Dewpoint -3°C / 27°F
Humidity 12%
Altimeter 29.9" Hg
Pressure 1013 hPa
Elevation 396
METAR KA39 260335Z AUTO 34004KT 7SM HZ CLR 29/M03 A2990 RMK AO2
Observed Flight Rules
Apr-26 @ 03:35 UTC
(16 minutes ago)
VFR
Wind Visibility
340° at 4 knots 7 miles
Clouds
  • Clear skies
Conditions
  • Haze
Temperature Dewpoint
29°C / 84°F -3°C / 27°F
Humidity Altimeter Pressure
12% 29.9" Hg 1013 hPa